• Join FlightAware (Why Join?)
  • Login
  • US Flag 
07:38AM EDT


 

Airport Tracker/Info


-or-


 

Live Flight TrackerFlight Track Log ✈ FLG3735 ✈ 17-Jun-2013 ✈ KDTW - KALB

Flight Track Log - Related Links

Times and Time Zones

All times are in EDT time to prevent confusion due to time zone crossing. See the FLG3735 flight status page for this flight to view local times or setup timezone preferences in your user account.

Time Position Orientation Groundspeed Altitude Reporting Facility
EDT Latitude Longitude Course Direction KTS MPH feet Rate Location/Type
10:26PM 42.2314 -83.3314 94° East 147 169 1,400  Level Cleveland Center
10:27PM 42.2614 -83.3019 36° Northeast 188 216 2,700 1,500 Climbing Cleveland Center
10:28PM 42.3003 -83.2333 53° Northeast 249 287 4,200 1,800 Climbing Cleveland Center
10:29PM 42.3210 -82.7068 82° East  Level FlightAware Approximate
10:29PM 42.3319 -83.1336 67° East 305 351 6,600  Level Cleveland Center
10:30PM 42.3432 -82.5439 71° East  Level FlightAware Approximate
10:30PM 42.3367 -83.0072 87° East 317 365 9,400  Level Cleveland Center
10:30PM 42.3406 -82.9261 86° East 338 389 10,800 1,560 Climbing Cleveland Center
10:31PM 42.3659 -82.3861 94° East  Level FlightAware Approximate
10:31PM 42.3472 -82.7942 86° East 350 403 12,200  Level Cleveland Center
10:32PM 42.3644 -82.6572 80° East 361 415 13,700 1,740 Climbing Cleveland Center
10:33PM 42.3836 -82.5117 80° East 380 437 15,700 1,680 Climbing Cleveland Center
10:34PM 42.4006 -82.3658 81° East 386 444 17,100 1,380 Climbing Cleveland Center
10:35PM 42.4236 -82.2144 78° East 397 457 18,500 1,200 Climbing Cleveland Center
10:36PM 42.4508 -82.0492 77° East 403 464 19,600 960 Climbing Cleveland Center
10:37PM 42.4736 -81.8978 78° East 424 488 20,500 960 Climbing Cleveland Center
10:38PM 42.5044 -81.7408 75° East 434 499 21,600 1,020 Climbing Cleveland Center
10:39PM 42.5267 -81.5778 79° East 434 499 22,600 960 Climbing Cleveland Center
10:40PM 42.5364 -81.4058 86° East 447 514 23,600 900 Climbing Cleveland Center
10:41PM 42.5481 -81.2342 85° East 453 521 24,400 720 Climbing Cleveland Center
10:42PM 42.5592 -81.0594 85° East 460 529 25,100 660 Climbing Cleveland Center
10:43PM 42.5683 -80.8594 86° East 467 537 25,800 600 Climbing Cleveland Center
10:44PM 42.5789 -80.6819 85° East 472 543 26,400 540 Climbing Cleveland Center
10:45PM 42.5894 -80.4958 86° East 479 551 26,900 300 Climbing Cleveland Center
10:46PM 42.5975 -80.3067 87° East 487 560 27,000  Climbing Cleveland Center
10:47PM 42.6072 -80.1178 86° East 508 585 27,000  Level Cleveland Center
10:48PM 42.6211 -79.9428 84° East 518 596 27,000  Level Cleveland Center
10:49PM 42.6303 -79.7450 86° East 518 596 27,000  Level Cleveland Center
10:50PM 42.6389 -79.5444 87° East 518 596 27,000  Level Cleveland Center
10:51PM 42.6475 -79.3439 87° East 518 596 27,000  Level Cleveland Center
10:52PM 42.6533 -79.1436 88° East 524 603 27,000  Level Cleveland Center
10:53PM 42.6611 -78.9400 87° East 529 609 27,000  Level Cleveland Center
10:54PM 42.6728 -78.7364 85° East 535 616 27,000  Level Cleveland Center
10:55PM 42.6775 -78.5300 88° East 535 616 27,000  Level Cleveland Center
10:56PM 42.6842 -78.3264 87° East 535 616 27,000  Level Cleveland Center
10:57PM 42.6925 -78.1256 87° East 535 616 27,000  Level Cleveland Center
10:58PM 42.6983 -77.9219 88° East 535 616 27,000  Level Cleveland Center
10:59PM 42.7019 -77.7183 89° East 535 616 27,000  Level Cleveland Center
11:01PM 42.7128 -77.3156 88° East 546 628 27,000  Level Boston Center
11:02PM 42.7192 -77.1125 87° East 540 621 27,000  Level Boston Center
11:03PM 42.7231 -76.9092 88° East 535 616 27,000  Level Boston Center
11:04PM 42.7267 -76.7086 89° East 535 616 27,000  Level Boston Center
11:05PM 42.7300 -76.5081 89° East 535 616 27,000  Level Boston Center
11:06PM 42.7347 -76.3075 88° East 535 616 27,000  Level Boston Center
11:08PM 42.7392 -76.1097 88° East 530 610 27,000  Level Boston Center
11:09PM 42.7406 -75.8694 89° East 530 610 27,000 -420 Level Boston Center
11:10PM 42.7444 -75.6689 88° East 525 604 26,200 -1,500 Descending Boston Center
11:11PM 42.7433 -75.4739 90° East 525 604 24,100 -2,100 Descending Boston Center
11:12PM 42.7461 -75.2872 89° East 513 590 22,000 -2,280 Descending Boston Center
11:13PM 42.7461 -75.1147 90° East 484 557 19,600 -2,220 Descending Boston Center
11:14PM 42.7478 -74.9536 89° East 451 519 17,600 -1,800 Descending Boston Center
11:15PM 42.7483 -74.8292 90° East 428 493 16,000 -2,160 Descending Boston Center
11:16PM 42.7478 -74.6456 90° East 408 470 13,300 -2,520 Descending Boston Center
11:16PM 42.7586 -74.5158 83° East 399 459 11,400 -1,680 Descending Boston Center
11:17PM 42.7778 -74.3806 79° East 353 406 10,300 -1,560 Descending Boston Center
11:18PM 42.7964 -74.2681 77° East 295 339 8,300 -1,980 Descending Boston Center
11:19PM 42.8147 -74.1553 77° East 304 350 6,300 -1,920 Descending Boston Center
11:20PM 42.8331 -74.0397 78° East 303 349 4,500 -1,800 Descending Boston Center